Latest Conditions
At L.F.Wade Int. Airport
Recorded at 1:55 pm
Mostly Cloudy
Temp.: 
17°C/63°F
Humidity: 
53%
Wind: 
N 14KT
or 16mph
Island Observations
Observations
Monday, March 30, 2015

Observations are in local time and taken at least once an hour, or upon the start and end of specified events such as showers and thunderstorms.

Time Sky / Weather Wind Speed/Gusts Temp. R.H. Pressure
     knots (mph)  °C (°F)  %  mb / "Hg
 13:55 Mostly Cloudy  N 14/0 (16/0) 17(63) 53 1019 / 30.09
 12:55 Partly Cloudy  NNW 15/0 (17/0) 17(63) 53 1019 / 30.09
 11:55 Mostly Cloudy  NNW 18/0 (21/0) 16(61) 56 1019 / 30.10
 10:55 Partly Cloudy  NNW 19/0 (22/0) 16(60) 55 1019 / 30.10
 09:55 Partly Cloudy  NNW 19/0 (22/0) 15(59) 55 1019 / 30.08
 08:55 Partly Cloudy  NNW 20/0 (23/0) 14(58) 53 1018 / 30.05
 07:55 Partly Cloudy Showers NW 20/0 (23/0) 14(57) 56 1017 / 30.04
 06:55 Partly Cloudy Showers NW 23/0 (26/0) 14(56) 58 1017 / 30.02
 05:55 Mostly Cloudy  NW 22/0 (25/0) 14(56) 63 1016 / 30.00
 05:07 Mostly Cloudy Showers NNW 22/0 (25/0) 13(56) 71 1016 / 29.99
 05:04 Mostly Cloudy Showers NW 24/0 (28/0) 14(56) 69 1016 / 29.99
 04:55 Mostly Cloudy  NW 27/0 (31/0) 14(56) 57 1016 / 30.00
 03:55 Mostly Cloudy  NW 26/0 (30/0) 14(57) 60 1016 / 30.00
 02:55 Mostly Cloudy  NW 20/0 (23/0) 14(57) 63 1016 / 30.01
 02:03 Mostly Cloudy Showers WNW 18/0 (21/0) 14(57) 67 1017 / 30.03
 01:55 Mostly Cloudy Showers NW 18/0 (21/0) 13(55) 74 1017 / 30.04
 01:11 Mostly Cloudy Showers NW 28/0 (32/0) 13(55) 80 1018 / 30.05
 01:01 Overcast  NW 18/0 (21/0) 14(57) 73 1018 / 30.05
 00:55 Overcast Rain NW 19/0 (22/0) 13(56) 76 1017 / 30.04
 23:55 Overcast Rain NNW 18/0 (21/0) 14(58) 78 1017 / 30.04
 22:55 Overcast Rain NNW 18/0 (21/0) 14(58) 76 1017 / 30.04
 22:30 Overcast Showers NNW 19/0 (22/0) 15(58) 80 1017 / 30.04
 22:14 Overcast  NNW 17/0 (20/0) 15(59) 76 1017 / 30.04
 21:55 Overcast Rain N 17/0 (20/0) 15(58) 83 1017 / 30.04
Observations from our AWOS sites are available here (password and username are both 'guest').